Time;durP1;ratioP1;P1;durP2;ratioP2;P2;SDS_P1;SDS_P2;PMS_P1;PMS_P2;Temp;Humidity;BMP_temperature;BMP_pressure;BME280_temperature;BME280_humidity;BME280_pressure;Samples;Min_cycle;Max_cycle;Signal;HPM_P1;HPM_P2
2022/09/18 00:00:50;;;;;;;0.50;0.50;;;;;;;7.90;80.75;97027.88;6256076;28;20246;-44
2022/09/18 00:03:56;;;;;;;3.50;1.10;;;;;;;7.89;80.43;97040.19;6255889;28;20231;-43
2022/09/18 00:06:58;;;;;;;1.03;0.90;;;;;;;7.88;80.72;97038.53;6257393;28;20231;-41
2022/09/18 00:10:00;;;;;;;2.50;0.70;;;;;;;7.85;80.70;97054.53;6255901;28;20223;-43
2022/09/18 00:13:02;;;;;;;1.73;0.60;;;;;;;7.88;80.40;97045.59;6256513;28;20313;-43
2022/09/18 00:16:06;;;;;;;1.20;0.73;;;;;;;7.87;80.97;97054.41;6255359;28;20238;-45
2022/09/18 00:19:09;;;;;;;0.60;0.60;;;;;;;7.93;79.41;97067.06;6255682;28;20707;-43
2022/09/18 00:22:11;;;;;;;1.13;0.60;;;;;;;7.98;79.73;97068.38;6231207;28;20240;-44
2022/09/18 00:25:13;;;;;;;2.00;1.17;;;;;;;7.94;79.32;97061.69;6230611;28;20234;-42
2022/09/18 00:28:15;;;;;;;1.43;0.80;;;;;;;7.94;80.16;97061.69;6231379;28;20277;-42
2022/09/18 00:31:21;;;;;;;1.83;0.90;;;;;;;7.96;80.36;97064.19;6232673;28;20699;-42
2022/09/18 00:34:23;;;;;;;1.30;0.70;;;;;;;7.91;80.51;97072.44;6255471;28;20231;-43
2022/09/18 00:37:26;;;;;;;2.40;0.87;;;;;;;7.89;80.22;97078.75;6253558;28;20228;-43
2022/09/18 00:40:28;;;;;;;3.40;1.17;;;;;;;7.88;80.93;97066.59;6254323;28;20245;-43
2022/09/18 00:43:33;;;;;;;0.80;0.70;;;;;;;7.88;79.83;97056.09;6255417;28;20233;-42
2022/09/18 00:46:36;;;;;;;1.10;0.80;;;;;;;7.89;80.28;97058.56;6236744;28;20227;-45
2022/09/18 00:49:46;;;;;;;1.17;0.73;;;;;;;7.85;79.73;97051.91;6242735;28;20317;-43
2022/09/18 00:52:57;;;;;;;2.53;1.10;;;;;;;7.81;80.75;97055.72;6236861;28;20601;-44
2022/09/18 00:56:01;;;;;;;1.50;0.80;;;;;;;7.83;80.96;97058.22;6254894;28;20235;-43
2022/09/18 00:59:03;;;;;;;2.17;0.90;;;;;;;7.83;80.75;97056.44;6254706;28;20738;-43
2022/09/18 01:02:05;;;;;;;1.73;0.97;;;;;;;7.88;81.93;97056.94;6248880;28;20637;-43
2022/09/18 01:05:10;;;;;;;0.80;0.80;;;;;;;7.94;81.93;97059.06;6253435;28;20250;-42
2022/09/18 01:08:36;;;;;;;6.53;0.93;;;;;;;8.00;81.50;97050.66;6236552;28;20222;-42
2022/09/18 01:11:54;;;;;;;1.03;0.77;;;;;;;8.04;81.35;97062.63;6253964;28;20598;-42
2022/09/18 01:15:28;;;;;;;2.27;0.77;;;;;;;8.11;80.15;97057.69;6254751;28;20314;-41
2022/09/18 01:18:51;;;;;;;1.07;0.90;;;;;;;8.17;80.28;97056.38;6252444;28;20583;-44
2022/09/18 01:21:56;;;;;;;1.23;0.50;;;;;;;8.16;80.13;97058.19;6253221;28;20230;-42
2022/09/18 01:25:24;;;;;;;1.33;0.60;;;;;;;8.12;80.84;97052.31;6241358;28;20234;-42
2022/09/18 01:28:36;;;;;;;2.20;1.33;;;;;;;8.12;80.37;97060.22;6254757;28;20246;-44
2022/09/18 01:31:53;;;;;;;2.10;1.00;;;;;;;8.18;80.12;97053.63;6252507;28;20604;-42
2022/09/18 01:35:14;;;;;;;0.50;0.50;;;;;;;8.22;79.61;97052.41;6236550;28;20231;-42
2022/09/18 01:38:51;;;;;;;0.50;0.50;;;;;;;8.26;78.79;97053.00;6239327;28;20238;-43
2022/09/18 01:41:56;;;;;;;0.40;0.40;;;;;;;8.29;78.40;97050.13;6235767;28;20606;-42
2022/09/18 01:45:03;;;;;;;0.73;0.60;;;;;;;8.33;78.35;97068.19;6254165;28;20234;-45
2022/09/18 01:48:13;;;;;;;1.43;0.50;;;;;;;8.34;78.71;97059.34;6253361;28;20306;-42
2022/09/18 01:51:21;;;;;;;1.90;0.60;;;;;;;8.32;78.37;97074.41;6254677;28;20223;-43
2022/09/18 01:54:29;;;;;;;0.70;0.60;;;;;;;8.34;78.57;97061.13;6252320;28;20231;-41
2022/09/18 01:57:57;;;;;;;1.57;0.40;;;;;;;8.36;78.97;97083.72;6253731;28;20632;-43
2022/09/18 02:01:04;;;;;;;1.57;0.90;;;;;;;8.38;79.40;97086.22;6252010;28;20266;-43
2022/09/18 02:04:12;;;;;;;0.87;0.60;;;;;;;8.36;78.84;97085.50;6253038;28;20235;-43
2022/09/18 02:07:19;;;;;;;4.23;0.80;;;;;;;8.38;79.64;97083.59;6252737;28;20238;-41
2022/09/18 02:10:24;;;;;;;1.07;0.80;;;;;;;8.38;78.83;97088.88;6253319;28;20238;-42
2022/09/18 02:13:31;;;;;;;0.73;0.67;;;;;;;8.39;80.00;97078.19;6254150;28;20227;-42
2022/09/18 02:16:43;;;;;;;1.40;0.80;;;;;;;8.43;79.34;97079.63;6251910;28;20790;-42
2022/09/18 02:19:55;;;;;;;1.97;0.73;;;;;;;8.46;79.37;97086.44;6251637;28;20235;-43
2022/09/18 02:23:03;;;;;;;1.57;0.90;;;;;;;8.48;80.06;97098.47;6251916;28;20268;-41
2022/09/18 02:26:08;;;;;;;2.40;0.67;;;;;;;8.51;79.20;97097.41;6252615;28;20243;-42
2022/09/18 02:29:12;;;;;;;0.77;0.40;;;;;;;8.56;78.88;97091.78;6254905;28;20614;-42
2022/09/18 02:32:17;;;;;;;0.80;0.60;;;;;;;8.51;80.10;97106.13;6236209;28;20237;-44
2022/09/18 02:35:22;;;;;;;0.77;0.50;;;;;;;8.52;80.02;97107.81;6253325;28;20582;-43
2022/09/18 02:38:34;;;;;;;1.63;0.47;;;;;;;8.52;80.42;97109.59;6251532;28;20227;-42
2022/09/18 02:41:55;;;;;;;2.60;0.70;;;;;;;8.42;81.78;97109.50;6235780;28;20741;-42
2022/09/18 02:45:20;;;;;;;1.67;0.60;;;;;;;8.38;82.23;97125.66;6235088;28;20236;-43
2022/09/18 02:48:35;;;;;;;0.77;0.70;;;;;;;8.31;82.55;97116.56;6234977;28;20929;-43
2022/09/18 02:52:16;;;;;;;0.80;0.60;;;;;;;8.24;82.85;97107.50;6235015;28;20234;-44
2022/09/18 02:55:25;;;;;;;0.70;0.70;;;;;;;8.16;83.44;97118.63;6229084;28;20233;-42
2022/09/18 02:58:34;;;;;;;0.90;0.80;;;;;;;8.11;84.20;97126.03;6235534;28;20745;-43
2022/09/18 03:01:57;;;;;;;1.53;0.70;;;;;;;8.05;84.80;97118.63;6252748;28;20261;-43
2022/09/18 03:05:01;;;;;;;3.60;1.90;;;;;;;8.00;85.06;97121.63;6235689;28;20638;-43
2022/09/18 03:08:26;;;;;;;2.43;0.97;;;;;;;7.93;85.78;97117.81;6230148;28;20730;-42
2022/09/18 03:11:28;;;;;;;0.83;0.67;;;;;;;7.88;85.03;97113.88;6236000;28;20572;-42
2022/09/18 03:14:31;;;;;;;1.00;0.70;;;;;;;7.88;84.71;97112.09;6234820;28;20235;-44
2022/09/18 03:17:33;;;;;;;0.50;0.50;;;;;;;7.89;85.22;97110.28;6238096;28;20238;-41
2022/09/18 03:20:35;;;;;;;2.10;0.50;;;;;;;7.84;83.60;97102.78;6239474;28;20234;-42
2022/09/18 03:23:39;;;;;;;1.57;0.80;;;;;;;7.80;83.99;97096.06;6255687;28;20387;-43
2022/09/18 03:26:53;;;;;;;0.70;0.57;;;;;;;7.76;84.19;97108.63;6256183;28;20373;-42
2022/09/18 03:29:58;;;;;;;0.63;0.63;;;;;;;7.71;83.92;97113.41;6255866;28;20246;-42
2022/09/18 03:33:00;;;;;;;1.77;0.70;;;;;;;7.68;83.90;97095.28;6239387;28;20273;-44
2022/09/18 03:36:04;;;;;;;0.80;0.50;;;;;;;7.67;83.79;97098.84;6253931;28;20222;-43
2022/09/18 03:39:08;;;;;;;0.80;0.70;;;;;;;7.62;84.08;97102.78;6262287;28;20240;-42
2022/09/18 03:42:11;;;;;;;1.37;0.80;;;;;;;7.57;83.16;97104.94;6243644;28;20709;-42
2022/09/18 03:45:14;;;;;;;1.13;1.00;;;;;;;7.57;82.73;97113.66;6258470;28;20218;-42
2022/09/18 03:48:16;;;;;;;2.40;0.80;;;;;;;7.55;83.38;97125.22;6261041;28;20230;-42
2022/09/18 03:51:19;;;;;;;2.40;0.87;;;;;;;7.52;83.57;97128.06;6256836;28;20566;-41
2022/09/18 03:54:21;;;;;;;1.03;0.70;;;;;;;7.49;84.40;97121.25;6239544;28;20233;-43
2022/09/18 03:57:36;;;;;;;4.53;0.73;;;;;;;7.51;84.37;97129.00;6256575;28;20361;-43
2022/09/18 04:00:52;;;;;;;4.27;0.80;;;;;;;7.56;84.02;97121.63;6255335;28;20237;-42
2022/09/18 04:04:04;;;;;;;1.37;0.70;;;;;;;7.62;83.89;97126.41;6246009;28;20235;-42
2022/09/18 04:07:29;;;;;;;4.93;1.20;;;;;;;7.66;82.80;97114.72;6236201;28;20569;-42
2022/09/18 04:10:53;;;;;;;2.30;0.70;;;;;;;7.71;83.20;97107.31;6242312;28;20552;-44
2022/09/18 04:13:57;;;;;;;1.87;0.83;;;;;;;7.76;82.16;97115.69;6237163;28;20265;-42
2022/09/18 04:16:59;;;;;;;1.57;0.70;;;;;;;7.82;81.89;97122.22;6237902;28;20320;-43
2022/09/18 04:20:01;;;;;;;1.57;1.00;;;;;;;7.84;81.81;97118.53;6255996;28;20666;-43
2022/09/18 04:23:04;;;;;;;1.17;0.90;;;;;;;7.90;81.83;97120.66;6253570;28;20246;-42
2022/09/18 04:26:10;;;;;;;3.57;0.97;;;;;;;7.92;81.46;97121.38;6237969;28;20238;-42
2022/09/18 04:29:22;;;;;;;1.47;0.80;;;;;;;7.94;82.12;97110.75;6236678;28;20273;-42
2022/09/18 04:32:24;;;;;;;1.03;0.60;;;;;;;7.95;81.60;97117.69;6251434;28;20235;-42
2022/09/18 04:35:27;;;;;;;1.57;0.80;;;;;;;8.01;80.71;97111.94;6236514;28;20768;-43
2022/09/18 04:38:29;;;;;;;1.93;0.80;;;;;;;8.00;80.25;97121.63;6237537;28;20264;-41
2022/09/18 04:41:31;;;;;;;1.50;0.80;;;;;;;8.02;79.13;97122.34;6237997;28;20231;-43
2022/09/18 04:44:34;;;;;;;4.33;0.80;;;;;;;8.04;80.28;97132.72;6237400;28;20233;-43
2022/09/18 04:47:37;;;;;;;2.77;0.80;;;;;;;8.02;79.74;97117.09;6254897;28;20679;-43
2022/09/18 04:50:40;;;;;;;0.77;0.77;;;;;;;8.05;79.18;97131.78;6229610;28;20285;-42
2022/09/18 04:53:50;;;;;;;3.83;0.77;;;;;;;8.10;79.43;97130.44;6211908;28;20232;-42
2022/09/18 04:56:52;;;;;;;0.93;0.67;;;;;;;8.15;79.03;97148.50;6234638;28;20635;-43
2022/09/18 04:59:55;;;;;;;4.63;1.13;;;;;;;8.20;79.29;97140.22;6230676;28;20736;-43
2022/09/18 05:02:57;;;;;;;1.60;0.70;;;;;;;8.17;80.04;97143.13;6211440;28;20236;-43
2022/09/18 05:06:01;;;;;;;4.83;1.47;;;;;;;8.13;80.38;97160.91;6211865;28;20220;-42
2022/09/18 05:09:04;;;;;;;1.00;0.83;;;;;;;8.04;82.32;97154.59;6230638;28;20242;-43
2022/09/18 05:12:08;;;;;;;1.60;0.83;;;;;;;8.03;83.64;97147.66;6228988;28;20685;-42
2022/09/18 05:15:11;;;;;;;1.23;0.97;;;;;;;8.00;82.66;97147.91;6212593;28;20209;-44
2022/09/18 05:18:13;;;;;;;2.20;0.80;;;;;;;8.05;82.46;97131.78;6212682;28;20203;-41
2022/09/18 05:21:18;;;;;;;1.13;0.87;;;;;;;8.05;82.96;97137.03;6237643;28;20251;-41
2022/09/18 05:24:20;;;;;;;1.43;0.80;;;;;;;7.95;83.02;97134.28;6230015;28;20207;-43
2022/09/18 05:27:24;;;;;;;1.90;0.80;;;;;;;7.85;83.82;97148.28;6227627;28;20245;-43
2022/09/18 05:30:30;;;;;;;0.60;0.60;;;;;;;7.77;84.34;97143.63;6230271;28;20239;-43
2022/09/18 05:33:35;;;;;;;1.17;0.60;;;;;;;7.96;83.65;97158.78;6246619;28;20448;-44
2022/09/18 05:36:37;;;;;;;0.97;0.60;;;;;;;8.00;83.34;97154.94;6253790;28;20324;-42
2022/09/18 05:39:40;;;;;;;0.70;0.60;;;;;;;8.09;82.30;97149.78;6236167;28;20291;-43
2022/09/18 05:42:49;;;;;;;7.77;2.50;;;;;;;8.14;83.41;97157.34;6235070;28;20254;-45
2022/09/18 05:45:51;;;;;;;1.67;1.00;;;;;;;8.10;84.19;97146.22;6234378;28;20239;-46
2022/09/18 05:49:01;;;;;;;3.53;1.30;;;;;;;8.04;82.59;97159.84;6251968;28;20259;-46
2022/09/18 05:52:03;;;;;;;2.50;0.83;;;;;;;8.12;83.15;97157.44;6251580;28;20629;-44
2022/09/18 05:55:05;;;;;;;3.77;1.00;;;;;;;8.17;81.17;97166.78;6236045;28;20564;-44
2022/09/18 05:58:12;;;;;;;3.70;1.00;;;;;;;8.20;80.93;97171.78;6252772;28;20239;-45
2022/09/18 06:01:15;;;;;;;1.80;0.87;;;;;;;8.17;81.15;97145.75;6253454;28;20729;-44
2022/09/18 06:04:37;;;;;;;4.20;1.23;;;;;;;8.27;81.35;97163.31;6230776;28;20329;-47
2022/09/18 06:07:42;;;;;;;3.23;1.00;;;;;;;8.47;80.81;97165.22;6235216;28;20311;-45
2022/09/18 06:10:45;;;;;;;2.30;1.20;;;;;;;8.58;80.33;97145.94;6252740;28;20238;-45
2022/09/18 06:13:48;;;;;;;3.97;1.13;;;;;;;8.69;79.90;97142.41;6252842;28;20721;-46
2022/09/18 06:16:50;;;;;;;4.60;1.27;;;;;;;8.69;77.81;97138.00;6234427;28;20256;-47
2022/09/18 06:19:52;;;;;;;3.40;1.13;;;;;;;8.77;79.71;97122.44;6235162;28;20241;-45
2022/09/18 06:22:59;;;;;;;3.00;1.03;;;;;;;8.80;80.64;97123.97;6235667;28;20339;-45
2022/09/18 06:26:12;;;;;;;4.63;1.10;;;;;;;8.84;78.78;97152.53;6252758;28;20223;-48
2022/09/18 06:29:17;;;;;;;3.10;0.93;;;;;;;8.89;77.25;97145.09;6234604;28;20231;-47
2022/09/18 06:32:23;;;;;;;5.30;0.80;;;;;;;9.00;77.42;97135.47;6234255;28;20242;-46
2022/09/18 06:35:25;;;;;;;3.80;1.13;;;;;;;9.13;75.99;97152.78;6252015;28;20233;-48
2022/09/18 06:38:27;;;;;;;7.83;1.30;;;;;;;9.23;76.05;97152.84;6234380;28;20603;-44
2022/09/18 06:41:29;;;;;;;5.80;2.87;;;;;;;9.31;76.03;97144.28;6250947;28;20322;-43
2022/09/18 06:44:31;;;;;;;2.93;1.10;;;;;;;9.29;76.16;97162.00;6235188;28;20227;-43
2022/09/18 06:47:39;;;;;;;3.73;1.20;;;;;;;9.37;75.02;97162.22;6234060;28;20317;-44
2022/09/18 06:50:42;;;;;;;5.07;1.10;;;;;;;9.37;75.42;97164.88;6235030;28;20840;-46
2022/09/18 06:53:45;;;;;;;3.53;1.23;;;;;;;9.25;76.65;97174.63;6240161;28;20594;-45
2022/09/18 06:56:48;;;;;;;4.00;1.00;;;;;;;9.25;75.18;97171.97;6255810;28;20235;-45
2022/09/18 06:59:52;;;;;;;2.57;1.00;;;;;;;9.16;74.28;97186.75;6256507;28;20230;-47
2022/09/18 07:02:55;;;;;;;2.03;0.87;;;;;;;9.24;74.76;97191.38;6238941;28;20412;-44
2022/09/18 07:06:15;;;;;;;2.93;1.40;;;;;;;9.18;73.90;97171.63;6256590;28;20239;-45
2022/09/18 07:09:21;;;;;;;2.60;1.10;;;;;;;9.32;73.72;97174.94;6238809;28;20213;-44
2022/09/18 07:12:28;;;;;;;2.93;0.93;;;;;;;9.28;75.02;97169.09;6255918;28;20238;-45
2022/09/18 07:15:32;;;;;;;6.13;1.57;;;;;;;9.40;73.64;97193.56;6238839;28;20231;-43
2022/09/18 07:18:34;;;;;;;3.83;0.90;;;;;;;9.49;73.23;97190.16;6255747;28;20308;-44
2022/09/18 07:21:38;;;;;;;4.07;1.00;;;;;;;9.57;72.91;97193.84;6252533;28;20701;-43
2022/09/18 07:24:42;;;;;;;3.20;0.80;;;;;;;9.69;72.76;97193.75;6239371;28;20736;-44
2022/09/18 07:27:44;;;;;;;5.03;1.00;;;;;;;9.88;72.69;97196.53;6238683;28;20294;-45
2022/09/18 07:30:51;;;;;;;3.10;0.90;;;;;;;9.99;71.11;97197.25;6238588;28;20223;-47
2022/09/18 07:33:54;;;;;;;3.60;1.07;;;;;;;10.16;70.60;97214.28;6237642;28;20232;-43
2022/09/18 07:37:00;;;;;;;1.17;0.60;;;;;;;10.45;69.25;97221.50;6239532;28;20240;-46
2022/09/18 07:40:05;;;;;;;0.60;0.60;;;;;;;10.59;68.18;97224.59;6255391;28;20718;-41
2022/09/18 07:43:26;;;;;;;2.83;0.73;;;;;;;10.94;67.34;97220.66;6257352;28;20237;-42
2022/09/18 07:46:29;;;;;;;2.20;0.80;;;;;;;11.23;66.32;97241.81;6238772;28;20377;-42
2022/09/18 07:49:37;;;;;;;0.70;0.60;;;;;;;11.62;66.28;97242.63;6255800;28;20244;-45
2022/09/18 07:52:53;;;;;;;5.70;0.60;;;;;;;11.93;64.17;97236.22;6237941;28;20356;-41
2022/09/18 07:55:59;;;;;;;1.17;0.50;;;;;;;12.10;63.50;97250.53;6237907;28;20512;-40
2022/09/18 07:59:02;;;;;;;1.47;0.60;;;;;;;12.53;62.31;97245.50;6239570;28;20311;-41
2022/09/18 08:02:07;;;;;;;0.50;0.40;;;;;;;13.05;60.88;97237.84;6256032;28;20238;-43
2022/09/18 08:05:12;;;;;;;0.73;0.50;;;;;;;13.11;59.99;97244.34;6237640;28;20242;-41
2022/09/18 08:08:22;;;;;;;2.97;0.50;;;;;;;13.16;59.11;97253.56;6238265;28;20399;-41
2022/09/18 08:12:02;;;;;;;1.03;0.50;;;;;;;13.23;59.37;97245.84;6203762;28;20239;-41
2022/09/18 08:15:14;;;;;;;0.70;0.33;;;;;;;13.26;58.31;97249.03;6204198;28;20215;-41
2022/09/18 08:18:39;;;;;;;1.97;0.47;;;;;;;12.72;58.62;97246.41;6251734;28;20741;-44
2022/09/18 08:21:46;;;;;;;0.97;0.47;;;;;;;13.02;57.90;97238.13;6245887;28;20233;-41
2022/09/18 08:24:50;;;;;;;0.70;0.47;;;;;;;13.73;57.99;97246.16;6212953;28;20310;-41
2022/09/18 08:27:53;;;;;;;1.00;0.43;;;;;;;14.10;57.16;97240.59;6212816;28;20625;-40
2022/09/18 08:31:06;;;;;;;0.60;0.40;;;;;;;13.77;56.85;97246.69;6213790;28;20730;-41
2022/09/18 08:34:08;;;;;;;1.17;0.87;;;;;;;13.78;56.04;97250.97;6234983;28;20238;-41
2022/09/18 08:37:10;;;;;;;0.87;0.40;;;;;;;14.10;55.47;97258.34;6255099;28;20653;-41
2022/09/18 08:40:41;;;;;;;0.77;0.50;;;;;;;14.26;56.03;97246.03;6254193;28;20316;-40
2022/09/18 08:43:51;;;;;;;0.40;0.40;;;;;;;14.33;54.88;97256.84;6237137;28;20372;-40
2022/09/18 08:47:05;;;;;;;1.60;0.87;;;;;;;14.33;52.24;97260.34;6255281;28;20238;-40
2022/09/18 08:50:15;;;;;;;1.13;0.50;;;;;;;14.24;55.02;97265.75;6236689;28;20613;-40
2022/09/18 08:53:29;;;;;;;0.50;0.33;;;;;;;14.40;53.74;97322.47;6254981;28;20230;-40
2022/09/18 08:56:51;;;;;;;2.23;0.40;;;;;;;13.89;55.56;97275.44;6254681;28;20753;-40
2022/09/18 09:00:09;;;;;;;0.30;0.30;;;;;;;13.80;56.17;97264.91;6254361;28;20234;-40
2022/09/18 09:03:15;;;;;;;0.40;0.30;;;;;;;13.75;57.26;97283.97;6236935;28;20299;-40
2022/09/18 09:06:46;;;;;;;1.70;0.30;;;;;;;13.44;57.47;97302.06;6254388;28;20210;-40
2022/09/18 09:10:03;;;;;;;1.20;0.30;;;;;;;12.88;58.68;97299.53;6237973;28;20273;-40
2022/09/18 09:13:44;;;;;;;1.30;0.40;;;;;;;13.08;59.43;97282.56;6235856;28;20307;-40
2022/09/18 09:16:50;;;;;;;0.97;0.40;;;;;;;12.96;59.81;97286.44;6235652;28;20651;-40
2022/09/18 09:20:02;;;;;;;0.63;0.40;;;;;;;12.83;60.88;97278.81;6254924;28;20223;-41
2022/09/18 09:23:33;;;;;;;9.83;1.07;;;;;;;12.50;61.38;97300.53;6235731;28;20242;-41
2022/09/18 09:26:42;;;;;;;1.47;0.63;;;;;;;12.35;61.64;97299.34;6236196;28;20242;-43
2022/09/18 09:30:12;;;;;;;1.80;0.50;;;;;;;12.35;61.21;97286.94;6231916;28;20216;-40
2022/09/18 09:33:59;;;;;;;4.60;0.70;;;;;;;12.60;60.62;97289.91;6242561;28;20718;-41
2022/09/18 09:37:38;;;;;;;0.90;0.40;;;;;;;12.78;60.84;97294.28;6250294;28;20237;-40
2022/09/18 09:40:49;;;;;;;1.23;0.50;;;;;;;12.84;60.72;97301.69;6235616;28;20231;-40
2022/09/18 09:44:13;;;;;;;1.20;0.50;;;;;;;13.27;61.40;97287.81;6236426;28;20238;-39
2022/09/18 09:47:34;;;;;;;0.30;0.30;;;;;;;13.26;58.96;97299.41;6253948;28;20231;-40
2022/09/18 09:50:52;;;;;;;1.07;0.53;;;;;;;13.07;59.66;97322.47;6227285;28;20309;-41
2022/09/18 09:54:00;;;;;;;0.80;0.50;;;;;;;13.30;58.47;97291.97;6226979;28;20267;-40
2022/09/18 09:57:21;;;;;;;0.47;0.30;;;;;;;13.81;56.90;97296.59;6229620;28;20370;-41
2022/09/18 10:00:24;;;;;;;1.00;0.30;;;;;;;14.20;55.09;97293.59;6232444;28;20255;-42
2022/09/18 10:04:12;;;;;;;1.03;0.50;;;;;;;13.85;57.72;97299.78;6235087;28;20277;-41
2022/09/18 10:07:25;;;;;;;1.17;0.60;;;;;;;13.50;58.38;97284.69;6209318;28;20297;-42
2022/09/18 10:10:57;;;;;;;1.73;0.40;;;;;;;14.12;58.64;97285.56;6211791;28;20263;-41
2022/09/18 10:14:15;;;;;;;0.50;0.50;;;;;;;15.06;55.87;97263.38;6243326;28;20224;-41
2022/09/18 10:17:20;;;;;;;1.00;0.40;;;;;;;15.76;53.42;97281.66;6244170;28;20239;-42
2022/09/18 10:20:27;;;;;;;1.77;0.47;;;;;;;15.56;52.64;97283.81;6237615;28;20313;-42
2022/09/18 10:23:37;;;;;;;0.50;0.50;;;;;;;14.68;54.00;97299.22;6214375;28;20294;-42
2022/09/18 10:27:11;;;;;;;0.67;0.47;;;;;;;14.55;54.81;97298.00;6231030;28;20668;-43
2022/09/18 10:30:14;;;;;;;0.77;0.57;;;;;;;14.63;54.92;97293.56;6247733;28;20236;-42
2022/09/18 10:33:45;;;;;;;0.40;0.30;;;;;;;14.36;54.60;97299.84;6250367;28;20238;-42
2022/09/18 10:36:52;;;;;;;0.40;0.27;;;;;;;14.77;56.11;97294.81;6240156;28;20231;-41
2022/09/18 10:39:59;;;;;;;0.50;0.30;;;;;;;14.41;55.06;97291.44;6235294;28;20234;-41
2022/09/18 10:43:14;;;;;;;0.83;0.40;;;;;;;14.63;55.15;97295.38;6233133;28;20247;-41
2022/09/18 10:46:24;;;;;;;0.30;0.30;;;;;;;14.63;54.80;97285.59;6232563;28;20239;-41
2022/09/18 10:49:39;;;;;;;0.90;0.50;;;;;;;14.75;55.22;97294.13;6218533;28;20233;-41
2022/09/18 10:52:43;;;;;;;0.70;0.40;;;;;;;15.02;55.11;97277.13;6239527;28;20227;-41
2022/09/18 10:55:51;;;;;;;1.77;0.40;;;;;;;14.72;55.80;97267.88;6241290;28;20231;-42
2022/09/18 10:59:12;;;;;;;3.33;0.50;;;;;;;15.04;55.38;97288.44;6258411;28;20239;-41
2022/09/18 11:02:18;;;;;;;1.10;0.40;;;;;;;15.70;52.47;97269.84;6239884;28;20234;-42
2022/09/18 11:05:25;;;;;;;0.50;0.40;;;;;;;16.19;50.93;97261.84;6239220;28;20235;-41
2022/09/18 11:08:34;;;;;;;0.83;0.50;;;;;;;16.29;51.04;97265.16;6239025;28;20234;-41
2022/09/18 11:11:42;;;;;;;0.80;0.40;;;;;;;16.44;52.24;97246.66;6220636;28;20224;-42
2022/09/18 11:15:06;;;;;;;1.00;0.30;;;;;;;16.69;49.24;97268.75;6214191;28;20230;-42
2022/09/18 11:18:14;;;;;;;2.60;0.90;;;;;;;16.48;48.70;97282.59;6243659;28;20223;-41
2022/09/18 11:21:17;;;;;;;2.37;0.70;;;;;;;16.00;51.29;97260.34;6239286;28;20220;-42
2022/09/18 11:24:26;;;;;;;1.03;0.53;;;;;;;15.77;53.03;97251.41;6235086;28;20237;-41
2022/09/18 11:27:57;;;;;;;1.70;0.70;;;;;;;16.28;51.73;97238.69;6231502;28;20239;-41
2022/09/18 11:31:11;;;;;;;0.80;0.40;;;;;;;16.13;51.72;97238.56;6229394;28;20248;-41
2022/09/18 11:34:24;;;;;;;1.10;0.50;;;;;;;16.38;52.21;97224.19;6236126;28;20398;-41
2022/09/18 11:37:37;;;;;;;3.27;0.80;;;;;;;16.17;51.12;97219.41;6245260;28;20242;-42
2022/09/18 11:40:50;;;;;;;1.87;0.63;;;;;;;16.54;52.35;97224.16;6257886;28;20231;-42
2022/09/18 11:44:14;;;;;;;0.90;0.60;;;;;;;16.59;50.75;97242.28;6233665;28;20249;-42
2022/09/18 11:47:18;;;;;;;1.60;0.70;;;;;;;17.13;49.66;97213.91;6242069;28;20406;-41
2022/09/18 11:50:25;;;;;;;1.63;0.60;;;;;;;17.61;48.21;97247.44;6232100;28;20243;-41
2022/09/18 11:53:39;;;;;;;1.13;0.60;;;;;;;17.05;49.71;97240.63;6243155;28;20702;-41
2022/09/18 11:56:50;;;;;;;0.67;0.50;;;;;;;17.26;49.63;97246.19;6230661;28;20591;-41
2022/09/18 12:00:03;;;;;;;1.33;0.60;;;;;;;16.70;48.69;97257.94;6248020;28;20231;-42
2022/09/18 12:03:26;;;;;;;2.43;0.50;;;;;;;17.18;49.46;97253.38;6253210;28;20239;-42
2022/09/18 12:06:43;;;;;;;2.03;0.70;;;;;;;17.75;49.59;97266.41;6250755;28;20601;-41
2022/09/18 12:10:01;;;;;;;1.10;0.30;;;;;;;17.81;45.29;97250.50;6226229;28;20253;-42
2022/09/18 12:13:45;;;;;;;0.27;0.27;;;;;;;18.15;44.68;97251.91;6253290;28;20578;-42
2022/09/18 12:16:56;;;;;;;0.93;0.30;;;;;;;18.32;46.64;97254.22;6238463;28;20227;-41
2022/09/18 12:20:22;;;;;;;0.60;0.20;;;;;;;18.80;46.27;97246.72;6238068;28;20230;-41
2022/09/18 12:23:26;;;;;;;0.30;0.20;;;;;;;-144.22;100.00;60274.75;6255807;28;20349;-41
2022/09/18 12:27:04;;;;;;;0.80;0.40;;;;;;;-144.22;100.00;60274.75;6237437;28;20250;-41
2022/09/18 12:30:08;;;;;;;1.90;0.70;;;;;;;-144.22;100.00;60274.75;6218567;28;20235;-42
2022/09/18 12:33:34;;;;;;;0.57;0.30;;;;;;;-144.22;100.00;60274.75;6237301;28;20302;-43
2022/09/18 12:36:51;;;;;;;1.47;0.33;;;;;;;-144.22;100.00;60274.75;6254581;28;20226;-41
2022/09/18 12:40:03;;;;;;;0.97;0.47;;;;;;;-144.22;100.00;60274.75;6256403;28;20235;-42
2022/09/18 12:43:34;;;;;;;2.63;0.50;;;;;;;-144.22;100.00;60274.75;6254834;28;20227;-42
2022/09/18 12:46:59;;;;;;;0.80;0.50;;;;;;;-144.22;100.00;60274.75;6237186;28;20237;-42
2022/09/18 12:50:11;;;;;;;0.47;0.47;;;;;;;-144.22;100.00;60274.75;6243537;28;20264;-41
2022/09/18 12:53:40;;;;;;;1.50;0.57;;;;;;;-144.22;100.00;60274.75;6253698;28;20227;-41
2022/09/18 12:57:09;;;;;;;0.80;0.40;;;;;;;19.17;100.00;80497.38;6254870;28;20658;-42
2022/09/18 13:00:16;;;;;;;1.20;0.70;;;;;;;-144.22;100.00;60274.75;6246709;28;20241;-41
2022/09/18 13:03:18;;;;;;;1.30;0.60;;;;;;;19.29;43.82;97205.97;6253577;28;20756;-42
2022/09/18 13:06:38;;;;;;;0.33;0.33;;;;;;;-144.22;100.00;60274.75;6236950;28;20214;-41
2022/09/18 13:09:52;;;;;;;0.40;0.40;;;;;;;-144.22;100.00;60274.75;6254798;28;20373;-42
2022/09/18 13:13:03;;;;;;;0.67;0.40;;;;;;;-144.22;100.00;60274.75;6255110;28;20813;-42
2022/09/18 13:16:37;;;;;;;0.80;0.40;;;;;;;-144.22;100.00;60274.75;6253558;28;20259;-41
2022/09/18 13:19:54;;;;;;;1.60;0.40;;;;;;;-144.22;100.00;60274.75;6254672;28;20249;-42
2022/09/18 13:22:59;;;;;;;0.50;0.30;;;;;;;-144.22;100.00;60274.75;6254396;28;20239;-42
2022/09/18 13:26:04;;;;;;;1.60;0.40;;;;;;;-144.22;100.00;60274.75;6254123;28;20843;-42
2022/09/18 13:29:44;;;;;;;0.30;0.30;;;;;;;-144.22;100.00;60274.75;6253296;28;20316;-42
2022/09/18 13:32:46;;;;;;;0.67;0.40;;;;;;;-144.22;100.00;60274.75;6252238;28;20243;-41
2022/09/18 13:35:54;;;;;;;2.00;0.40;;;;;;;-144.22;100.00;60274.75;6253648;28;20613;-42
2022/09/18 13:39:01;;;;;;;0.47;0.40;;;;;;;-144.22;100.00;60274.75;6253799;28;20575;-41
2022/09/18 13:42:03;;;;;;;1.13;0.40;;;;;;;-144.22;100.00;60274.75;6252924;28;20219;-43
2022/09/18 13:45:17;;;;;;;1.17;0.40;;;;;;;-144.22;100.00;60274.75;6252351;28;20736;-41
2022/09/18 13:48:39;;;;;;;1.40;0.30;;;;;;;-144.22;100.00;60274.75;6252724;28;20215;-42
2022/09/18 13:51:41;;;;;;;6.03;0.50;;;;;;;-144.22;100.00;60274.75;6253335;28;20265;-41
2022/09/18 13:55:11;;;;;;;1.40;0.60;;;;;;;-144.22;100.00;60274.75;6253562;28;20227;-42
2022/09/18 13:58:34;;;;;;;0.77;0.30;;;;;;;-144.22;100.00;60274.75;6235512;28;20261;-42
2022/09/18 14:01:39;;;;;;;2.60;0.50;;;;;;;-144.22;100.00;60274.75;6253500;28;20734;-43
2022/09/18 14:05:32;;;;;;;0.93;0.30;;;;;;;-144.22;100.00;60274.75;6253137;28;20238;-42
2022/09/18 14:08:37;;;;;;;1.07;0.40;;;;;;;-144.22;100.00;60274.75;6244966;28;20223;-41
2022/09/18 14:11:39;;;;;;;0.30;0.30;;;;;;;-144.22;100.00;60274.75;6252481;28;20227;-42
2022/09/18 14:14:42;;;;;;;0.57;0.40;;;;;;;-144.22;100.00;60274.75;6252863;28;20712;-42
2022/09/18 14:18:06;;;;;;;0.43;0.30;;;;;;;-144.22;100.00;60274.75;6257925;28;20238;-42
2022/09/18 14:21:18;;;;;;;0.90;0.30;;;;;;;-144.22;100.00;60274.75;6252933;28;20312;-42
2022/09/18 14:24:48;;;;;;;0.67;0.40;;;;;;;-144.22;100.00;60274.75;6253154;28;20694;-41
2022/09/18 14:27:55;;;;;;;0.33;0.30;;;;;;;-144.22;100.00;60274.75;6254219;28;20229;-42
2022/09/18 14:31:25;;;;;;;0.53;0.40;;;;;;;-144.22;100.00;60274.75;6253796;28;20234;-42
2022/09/18 14:34:27;;;;;;;0.30;0.30;;;;;;;-144.22;100.00;60274.75;6228562;28;20713;-42
2022/09/18 14:37:35;;;;;;;0.30;0.30;;;;;;;-144.22;100.00;60274.75;6228422;28;20699;-41
2022/09/18 14:40:38;;;;;;;0.50;0.30;;;;;;;-144.22;100.00;60274.75;6229452;28;20326;-42
2022/09/18 14:43:54;;;;;;;0.40;0.30;;;;;;;-144.22;100.00;60274.75;6228364;28;20231;-41
2022/09/18 14:47:02;;;;;;;0.47;0.30;;;;;;;-144.22;100.00;60274.75;6228388;28;20232;-42
2022/09/18 14:50:29;;;;;;;0.40;0.37;;;;;;;-144.22;100.00;60274.75;6235938;28;20224;-41
2022/09/18 14:53:41;;;;;;;0.63;0.60;;;;;;;-144.22;100.00;60274.75;6253186;28;20597;-41
2022/09/18 14:56:43;;;;;;;0.30;0.30;;;;;;;-144.22;100.00;60274.75;6253707;28;20602;-42
2022/09/18 14:59:48;;;;;;;0.43;0.30;;;;;;;-144.22;100.00;60274.75;6253330;28;20234;-41